Time;durP1;ratioP1;P1;durP2;ratioP2;P2;SDS_P1;SDS_P2;PMS_P1;PMS_P2;Temp;Humidity;BMP_temperature;BMP_pressure;BME280_temperature;BME280_humidity;BME280_pressure;Samples;Min_cycle;Max_cycle;Signal;HPM_P1;HPM_P2
2023/08/22 00:02:27;;;;;;;9.30;2.83;;;;;;;18.73;100.00;95022.09;5029493;28;20481;-72
2023/08/22 00:04:53;;;;;;;13.30;2.50;;;;;;;18.68;100.00;88988.50;5022662;28;20542;-72
2023/08/22 00:07:18;;;;;;;9.93;2.47;;;;;;;18.66;100.00;88985.50;5017906;28;20033;-71
2023/08/22 00:09:44;;;;;;;8.93;2.67;;;;;;;18.69;100.00;102472.66;5028484;28;20108;-73
2023/08/22 00:12:09;;;;;;;6.27;2.70;;;;;;;18.72;100.00;98924.56;5022410;28;20029;-71
2023/08/22 00:14:34;;;;;;;5.37;2.60;;;;;;;18.71;100.00;93600.22;5027946;28;20477;-72
2023/08/22 00:17:00;;;;;;;7.03;2.50;;;;;;;18.68;100.00;101049.66;5025555;28;20112;-72
2023/08/22 00:19:25;;;;;;;8.60;2.70;;;;;;;18.65;100.00;96429.25;5024359;28;20057;-72
2023/08/22 00:21:51;;;;;;;6.60;2.70;;;;;;;18.63;100.00;101040.41;5020296;28;20038;-72
2023/08/22 00:24:16;;;;;;;8.47;3.20;;;;;;;18.63;100.00;87210.66;5023416;28;20071;-72
2023/08/22 00:26:42;;;;;;;7.97;2.30;;;;;;;18.60;100.00;95710.88;5023182;28;20034;-73
2023/08/22 00:29:07;;;;;;;7.27;2.77;;;;;;;18.56;100.00;93931.34;5022403;28;20028;-72
2023/08/22 00:31:33;;;;;;;6.90;2.60;;;;;;;18.52;100.00;92861.59;5021157;28;20579;-71
2023/08/22 00:34:01;;;;;;;5.37;2.60;;;;;;;18.50;100.00;92859.28;5019662;28;20036;-72
2023/08/22 00:36:26;;;;;;;5.78;2.55;;;;;;;18.47;100.00;90373.78;5020253;28;20087;-72
2023/08/22 00:38:52;;;;;;;9.30;3.03;;;;;;;18.47;100.00;92500.22;5025163;28;20022;-72
2023/08/22 00:41:17;;;;;;;4.93;2.50;;;;;;;18.47;100.00;90374.50;5026497;28;20489;-72
2023/08/22 00:43:42;;;;;;;7.00;2.43;;;;;;;18.47;100.00;85771.94;5023421;28;20098;-72
2023/08/22 00:46:08;;;;;;;8.17;2.70;;;;;;;18.40;100.00;93906.25;5023858;28;20026;-71
2023/08/22 00:48:34;;;;;;;5.63;2.40;;;;;;;18.33;100.00;94958.63;5026040;28;20443;-72
2023/08/22 00:51:00;;;;;;;6.57;3.28;;;;;;;18.27;100.00;92114.28;5020341;28;20054;-73
2023/08/22 00:53:26;;;;;;;5.60;2.30;;;;;;;18.20;100.00;100612.91;5029455;28;20091;-72
2023/08/22 00:55:52;;;;;;;7.97;2.72;;;;;;;18.15;100.00;98830.38;5026786;28;20290;-75
2023/08/22 00:58:18;;;;;;;5.83;2.90;;;;;;;18.09;100.00;95983.78;5026721;28;20044;-75
2023/08/22 01:00:44;;;;;;;5.30;2.10;;;;;;;18.09;100.00;97047.31;5017098;28;20037;-74
2023/08/22 01:03:10;;;;;;;5.35;2.33;;;;;;;18.07;100.00;93855.22;5026880;28;20033;-75
2023/08/22 01:05:42;;;;;;;6.68;2.65;;;;;;;18.11;100.00;89258.34;5023695;28;20025;-74
2023/08/22 01:08:24;;;;;;;5.72;2.72;;;;;;;18.05;100.00;83237.69;5020845;28;20033;-75
2023/08/22 01:10:53;;;;;;;5.50;2.60;;;;;;;17.96;100.00;85345.31;5021865;28;20076;-75
2023/08/22 01:13:31;;;;;;;5.13;2.50;;;;;;;17.91;100.00;86398.56;5023659;28;20036;-74
2023/08/22 01:15:57;;;;;;;3.95;2.33;;;;;;;17.89;100.00;82155.84;5024830;28;20037;-75
2023/08/22 01:18:24;;;;;;;7.83;2.83;;;;;;;17.87;100.00;81800.66;5036342;28;20017;-75
2023/08/22 01:20:50;;;;;;;4.45;2.22;;;;;;;17.86;100.00;78269.97;5022833;28;20051;-75
2023/08/22 01:23:15;;;;;;;6.07;2.57;;;;;;;17.88;100.00;78272.56;5023560;28;20095;-75
2023/08/22 01:25:41;;;;;;;7.23;2.43;;;;;;;17.85;100.00;78973.59;5023836;28;20036;-75
2023/08/22 01:28:26;;;;;;;7.35;2.85;;;;;;;17.87;100.00;82506.91;5021640;28;20060;-75
2023/08/22 01:31:10;;;;;;;8.45;2.58;;;;;;;17.83;100.00;86387.03;5022038;28;20116;-75
2023/08/22 01:33:58;;;;;;;4.88;2.25;;;;;;;17.83;100.00;85680.16;5022724;28;20492;-75
2023/08/22 01:36:25;;;;;;;5.75;2.28;;;;;;;17.82;100.00;87799.72;5020536;28;20442;-74
2023/08/22 01:38:53;;;;;;;5.65;2.40;;;;;;;17.82;100.00;90629.41;5026122;28;20036;-75
2023/08/22 01:41:19;;;;;;;7.30;3.22;;;;;;;17.84;100.00;86389.22;5018088;28;20021;-75
2023/08/22 01:43:45;;;;;;;7.25;2.40;;;;;;;17.79;100.00;87088.94;5022656;28;20075;-75
2023/08/22 01:46:10;;;;;;;7.37;2.53;;;;;;;17.82;100.00;86032.13;5023434;28;20045;-74
2023/08/22 01:48:36;;;;;;;4.60;2.73;;;;;;;17.78;100.00;89562.78;5026469;28;20278;-75
2023/08/22 01:51:02;;;;;;;5.27;2.63;;;;;;;17.71;100.00;91320.38;5026343;28;20025;-75
2023/08/22 01:53:28;;;;;;;5.45;2.33;;;;;;;17.66;100.00;86009.13;5025015;28;20040;-75
2023/08/22 01:55:58;;;;;;;6.63;3.03;;;;;;;17.63;100.00;84944.94;5028161;28;20388;-74
2023/08/22 01:58:23;;;;;;;7.50;2.45;;;;;;;17.60;100.00;84234.34;5017854;28;20065;-74
2023/08/22 02:00:49;;;;;;;6.53;2.30;;;;;;;17.58;100.00;88824.94;5018137;28;20681;-75
2023/08/22 02:03:14;;;;;;;7.07;2.37;;;;;;;17.51;100.00;79633.97;5021268;28;20078;-75
2023/08/22 02:05:39;;;;;;;3.80;2.40;;;;;;;17.49;100.00;72935.88;5026613;28;20405;-72
2023/08/22 02:08:05;;;;;;;3.27;2.10;;;;;;;17.45;100.00;70115.41;5024767;28;20041;-72
2023/08/22 02:10:30;;;;;;;6.50;2.67;;;;;;;17.44;100.00;68707.22;5021887;28;20037;-72
2023/08/22 02:12:56;;;;;;;6.63;2.90;;;;;;;17.37;100.00;72569.16;5027738;28;20022;-71
2023/08/22 02:15:21;;;;;;;4.83;2.47;;;;;;;17.37;100.00;66941.22;5024644;28;20061;-71
2023/08/22 02:17:48;;;;;;;7.27;2.33;;;;;;;17.30;100.00;70801.28;5027649;28;20499;-71
2023/08/22 02:20:13;;;;;;;7.88;2.80;;;;;;;17.32;100.00;70451.84;5024817;28;20088;-71
2023/08/22 02:22:40;;;;;;;7.47;2.73;;;;;;;17.29;100.00;66229.94;5025574;28;20469;-72
2023/08/22 02:25:07;;;;;;;6.28;2.83;;;;;;;17.27;100.00;64119.44;5024632;28;20057;-71
2023/08/22 02:27:32;;;;;;;7.35;2.63;;;;;;;17.25;100.00;63766.13;5025795;28;20042;-72
2023/08/22 02:29:58;;;;;;;9.13;2.70;;;;;;;17.20;100.00;63058.56;5026579;28;20535;-71
2023/08/22 02:32:23;;;;;;;7.47;2.83;;;;;;;17.18;100.00;58144.81;5022370;28;20040;-71
2023/08/22 02:34:48;;;;;;;5.67;2.60;;;;;;;17.16;100.00;63757.00;5023732;28;20084;-71
2023/08/22 02:37:14;;;;;;;7.37;2.77;;;;;;;17.14;100.00;61999.28;5021349;28;20546;-71
2023/08/22 02:39:39;;;;;;;6.67;3.03;;;;;;;17.11;100.00;59891.19;5021479;28;20029;-71
2023/08/22 02:42:05;;;;;;;10.67;3.07;;;;;;;17.07;100.00;56732.06;5024989;28;20022;-72
2023/08/22 02:44:30;;;;;;;4.83;2.67;;;;;;;17.02;100.00;59531.47;5021399;28;20121;-71
2023/08/22 02:46:56;;;;;;;9.87;2.53;;;;;;;17.03;100.00;60233.84;5027256;28;20080;-71
2023/08/22 02:49:21;;;;;;;7.73;3.03;;;;;;;17.00;100.00;57426.19;5027216;28;20036;-71
2023/08/22 02:51:46;;;;;;;7.17;3.33;;;;;;;16.97;100.00;59877.59;5023592;28;20033;-72
2023/08/22 02:54:12;;;;;;;4.60;2.80;;;;;;;16.97;100.00;58825.78;5028838;28;20029;-71
2023/08/22 02:56:37;;;;;;;8.60;3.40;;;;;;;16.95;100.00;60927.09;5029451;28;20132;-71
2023/08/22 02:59:03;;;;;;;6.73;3.20;;;;;;;16.93;100.00;52866.72;5025366;28;20041;-71
2023/08/22 03:01:28;;;;;;;8.30;3.67;;;;;;;16.89;100.00;58467.34;5025252;28;20490;-71
2023/08/22 03:03:54;;;;;;;7.23;3.53;;;;;;;16.90;100.00;57767.41;5021972;28;20125;-71
2023/08/22 03:06:22;;;;;;;8.32;3.10;;;;;;;16.89;100.00;55313.78;5025750;28;20380;-71
2023/08/22 03:08:47;;;;;;;7.13;3.35;;;;;;;16.90;100.00;53914.16;5022952;28;20048;-71
2023/08/22 03:11:13;;;;;;;8.57;3.43;;;;;;;16.90;100.00;49365.69;5021757;28;20036;-71
2023/08/22 03:13:38;;;;;;;9.33;3.60;;;;;;;16.89;100.00;48665.56;5022791;28;20159;-71
2023/08/22 03:16:04;;;;;;;9.20;3.33;;;;;;;16.88;100.00;48315.16;5023874;28;20128;-71
2023/08/22 03:18:30;;;;;;;8.33;3.57;;;;;;;16.80;100.00;50056.66;5021994;28;20026;-71
2023/08/22 03:20:58;;;;;;;12.20;3.93;;;;;;;16.80;100.00;47260.16;5028562;28;20505;-71
2023/08/22 03:23:24;;;;;;;9.27;3.55;;;;;;;16.83;100.00;45166.41;5023429;28;20041;-72
2023/08/22 03:26:00;;;;;;;8.20;3.43;;;;;;;16.81;100.00;45164.88;5022459;28;20034;-73
2023/08/22 03:28:26;;;;;;;5.37;3.63;;;;;;;16.75;100.00;44461.88;5027750;28;20540;-72
2023/08/22 03:31:03;;;;;;;6.25;3.65;;;;;;;16.68;100.00;46551.88;5027895;28;20029;-71
2023/08/22 03:33:30;;;;;;;10.93;4.75;;;;;;;16.64;100.00;45850.59;5027040;28;20104;-73
2023/08/22 03:35:56;;;;;;;9.10;4.28;;;;;;;16.62;100.00;44801.16;5022985;28;20457;-72
2023/08/22 03:38:23;;;;;;;9.57;4.63;;;;;;;16.61;100.00;42706.66;5024476;28;20076;-71
2023/08/22 03:40:48;;;;;;;7.80;4.35;;;;;;;16.59;100.00;42356.28;5023413;28;20561;-72
2023/08/22 03:43:16;;;;;;;10.23;3.90;;;;;;;16.57;100.00;42005.63;5024912;28;20113;-72
2023/08/22 03:45:42;;;;;;;11.32;4.15;;;;;;;16.54;100.00;39562.47;5023911;28;20396;-73
2023/08/22 03:48:07;;;;;;;7.70;4.25;;;;;;;16.53;100.00;39910.41;5024396;28;20035;-72
2023/08/22 03:50:33;;;;;;;7.37;4.13;;;;;;;16.53;100.00;38864.97;5029212;28;20515;-73
2023/08/22 03:52:58;;;;;;;10.73;5.07;;;;;;;16.56;100.00;36775.84;5023277;28;20041;-72
2023/08/22 03:55:24;;;;;;;7.60;4.50;;;;;;;16.51;100.00;37818.19;5022624;28;20356;-72
2023/08/22 03:57:49;;;;;;;9.30;5.30;;;;;;;16.46;100.00;38511.84;5025447;28;20081;-71
2023/08/22 04:00:15;;;;;;;9.53;5.00;;;;;;;16.45;100.00;39904.97;5018165;28;20092;-73
2023/08/22 04:02:40;;;;;;;12.53;4.83;;;;;;;16.42;100.00;38160.78;5059117;28;20036;-72
2023/08/22 04:05:06;;;;;;;13.53;4.87;;;;;;;16.36;100.00;37808.47;5020880;28;20110;-71
2023/08/22 04:07:31;;;;;;;8.67;4.87;;;;;;;16.35;100.00;37807.50;5021487;28;20040;-71
2023/08/22 04:09:57;;;;;;;11.10;4.80;;;;;;;16.31;100.00;39546.91;5025376;28;20034;-71
2023/08/22 04:12:22;;;;;;;11.80;4.93;;;;;;;16.30;100.00;40243.59;5023270;28;20038;-72
2023/08/22 04:14:48;;;;;;;14.53;4.70;;;;;;;16.28;100.00;40242.22;5024642;28;20064;-71
2023/08/22 04:17:13;;;;;;;14.33;4.83;;;;;;;16.23;100.00;39541.50;5022459;28;20048;-72
2023/08/22 04:19:39;;;;;;;10.87;5.27;;;;;;;16.23;100.00;39193.44;5023112;28;20111;-71
2023/08/22 04:22:04;;;;;;;8.30;4.67;;;;;;;16.19;100.00;41281.22;5031227;28;20036;-72
2023/08/22 04:24:31;;;;;;;9.40;5.23;;;;;;;16.16;100.00;38143.78;5026893;28;20096;-74
2023/08/22 04:26:56;;;;;;;8.15;4.55;;;;;;;16.18;100.00;36752.22;5025598;28;20037;-75
2023/08/22 04:29:22;;;;;;;11.80;4.67;;;;;;;16.13;100.00;35356.50;5023941;28;20064;-75
2023/08/22 04:31:48;;;;;;;10.63;5.10;;;;;;;16.12;100.00;32572.88;5016337;28;20474;-75
2023/08/22 04:34:13;;;;;;;8.73;4.97;;;;;;;16.15;100.00;30488.50;5024691;28;20042;-74
2023/08/22 04:36:39;;;;;;;14.37;5.23;;;;;;;16.12;100.00;31182.13;5017535;28;20026;-74
2023/08/22 04:39:04;;;;;;;11.83;5.17;;;;;;;16.12;100.00;32920.94;5021017;28;20071;-75
2023/08/22 04:41:30;;;;;;;7.47;5.07;;;;;;;16.06;100.00;34308.78;5022192;28;20021;-75
2023/08/22 04:43:55;;;;;;;10.73;4.90;;;;;;;16.07;100.00;37093.41;5028425;28;20261;-75
2023/08/22 04:46:20;;;;;;;10.07;4.57;;;;;;;16.08;100.00;36397.53;5027809;28;20029;-75
2023/08/22 04:48:46;;;;;;;8.90;4.47;;;;;;;16.10;100.00;36747.19;5025374;28;20116;-75
2023/08/22 04:51:11;;;;;;;12.37;4.83;;;;;;;16.11;100.00;38837.06;5020840;28;20083;-76
2023/08/22 04:53:36;;;;;;;11.00;5.63;;;;;;;16.12;100.00;39882.47;5020861;28;20377;-75
2023/08/22 04:56:02;;;;;;;13.50;5.40;;;;;;;16.10;100.00;39533.06;5023093;28;20126;-75
2023/08/22 04:58:27;;;;;;;13.33;5.40;;;;;;;16.12;100.00;39186.06;5023314;28;20029;-75
2023/08/22 05:00:53;;;;;;;11.23;4.40;;;;;;;16.14;100.00;38142.16;5017923;28;20041;-75
2023/08/22 05:03:19;;;;;;;8.43;4.63;;;;;;;16.16;100.00;38143.47;5025338;28;20047;-74
2023/08/22 05:05:45;;;;;;;11.70;5.13;;;;;;;16.22;100.00;35361.97;5020976;28;20482;-75
2023/08/22 05:08:10;;;;;;;8.70;4.53;;;;;;;16.20;100.00;36405.00;5028961;28;20028;-75
2023/08/22 05:10:35;;;;;;;8.87;5.27;;;;;;;16.25;100.00;35015.72;5022858;28;20060;-74
2023/08/22 05:13:01;;;;;;;9.40;5.33;;;;;;;16.33;100.00;32584.69;5017854;28;20040;-75
2023/08/22 05:15:26;;;;;;;12.67;5.40;;;;;;;16.37;100.00;35022.94;5025018;28;20029;-75
2023/08/22 05:17:52;;;;;;;8.03;5.27;;;;;;;16.46;100.00;37466.56;5018633;28;20084;-75
2023/08/22 05:20:17;;;;;;;13.47;4.63;;;;;;;16.59;100.00;40611.91;5024556;28;20037;-75
2023/08/22 05:22:42;;;;;;;19.20;5.93;;;;;;;16.76;100.00;38880.25;5033956;28;20038;-73
2023/08/22 05:25:08;;;;;;;15.90;5.30;;;;;;;16.87;100.00;39933.59;5019958;28;20033;-75
2023/08/22 05:27:34;;;;;;;7.73;4.80;;;;;;;16.99;100.00;41337.59;5025255;28;20083;-74
2023/08/22 05:29:59;;;;;;;10.40;5.73;;;;;;;17.09;100.00;44138.63;5022494;28;20038;-74
2023/08/22 05:32:25;;;;;;;12.80;5.37;;;;;;;17.19;100.00;44495.16;5022249;28;20033;-74
2023/08/22 05:34:50;;;;;;;8.57;5.03;;;;;;;17.26;100.00;46248.47;5030483;28;20032;-74
2023/08/22 05:37:15;;;;;;;11.57;5.27;;;;;;;17.40;100.00;48357.78;5021594;28;20440;-74
2023/08/22 05:39:41;;;;;;;14.57;5.57;;;;;;;17.62;100.00;49075.88;5024161;28;20039;-72
2023/08/22 07:49:04;;;;;;;10.30;6.03;;;;;;;21.84;100.00;156947.38;5693898;23;20392;-74
2023/08/22 07:51:30;;;;;;;14.80;6.43;;;;;;;21.80;100.00;156936.91;4888501;29;20041;-74
2023/08/22 07:53:56;;;;;;;13.35;8.25;;;;;;;21.90;100.00;156963.03;4889336;29;20020;-74
2023/08/22 07:56:22;;;;;;;18.57;7.00;;;;;;;21.86;100.00;156952.59;4894606;29;20489;-77
2023/08/22 07:58:48;;;;;;;14.27;6.87;;;;;;;21.71;100.00;156913.44;4888032;29;20036;-76
2023/08/22 08:01:16;;;;;;;14.27;7.45;;;;;;;21.68;100.00;156906.91;4884824;29;20036;-76
2023/08/22 08:21:43;;;;;;;25.85;9.00;;;;;;;22.12;100.00;157020.50;4906280;29;20862;-76
2023/08/22 08:24:10;;;;;;;18.17;9.17;;;;;;;22.36;100.00;157083.22;4910851;29;20040;-76
2023/08/22 08:26:37;;;;;;;15.30;8.77;;;;;;;22.44;100.00;157104.16;4909568;29;20468;-76
2023/08/22 08:29:03;;;;;;;20.80;8.20;;;;;;;22.38;100.00;157088.44;4911777;29;20032;-77
2023/08/22 08:31:28;;;;;;;14.80;7.97;;;;;;;22.37;100.00;157085.84;4909789;29;20031;-76
2023/08/22 08:33:54;;;;;;;14.37;8.13;;;;;;;22.44;100.00;157104.16;4910477;29;20040;-77
2023/08/22 08:36:20;;;;;;;20.63;8.87;;;;;;;22.50;100.00;157121.16;4910806;29;20028;-76
2023/08/22 08:38:45;;;;;;;21.70;8.93;;;;;;;22.61;100.00;157148.56;4909012;29;20079;-76
2023/08/22 08:41:12;;;;;;;27.27;8.70;;;;;;;22.70;100.00;157172.09;4908213;29;20033;-77
2023/08/22 08:43:37;;;;;;;;;;;;;;;22.96;100.00;157240.06;4910068;29;20111;-77
2023/08/22 08:46:03;;;;;;;16.60;7.63;;;;;;;22.94;100.00;157236.13;4909903;29;19927;-77
2023/08/22 08:48:29;;;;;;;13.90;7.63;;;;;;;22.76;100.00;157187.78;4898865;29;20043;-75
2023/08/22 08:50:58;;;;;;;22.52;7.40;;;;;;;22.67;100.00;157165.56;4897975;29;20033;-74
2023/08/22 08:53:24;;;;;;;21.08;6.95;;;;;;;23.00;100.00;157250.53;4905690;29;20169;-76
2023/08/22 08:55:51;;;;;;;14.00;5.70;;;;;;;23.21;100.00;157305.50;4901158;29;20042;-75
2023/08/22 08:58:16;;;;;;;;;;;;;;;23.43;100.00;157364.28;4902713;29;20051;-76
2023/08/22 09:00:43;;;;;;;15.10;5.82;;;;;;;23.47;100.00;157373.47;4903176;29;20291;-76
2023/08/22 09:03:09;;;;;;;12.77;5.70;;;;;;;23.54;100.00;157391.78;4904601;29;20016;-76
2023/08/22 09:05:34;;;;;;;16.80;6.37;;;;;;;23.66;100.00;157424.47;4904101;29;20031;-74
2023/08/22 09:08:19;;;;;;;14.20;6.40;;;;;;;24.08;100.00;157534.38;4907420;29;20036;-74
2023/08/22 09:10:52;;;;;;;12.65;5.93;;;;;;;24.28;100.00;157586.66;4906446;29;20560;-73
2023/08/22 09:13:26;;;;;;;17.20;7.00;;;;;;;24.35;100.00;157603.69;4904411;29;20031;-74
2023/08/22 09:15:57;;;;;;;17.80;5.82;;;;;;;24.60;100.00;157669.16;4904245;29;20044;-74
2023/08/22 09:18:23;;;;;;;14.75;5.95;;;;;;;24.82;100.00;157726.75;4908401;29;20036;-73
2023/08/22 09:20:48;;;;;;;10.97;5.23;;;;;;;24.65;100.00;157683.53;4904742;29;20056;-74
2023/08/22 09:23:29;;;;;;;14.70;5.13;;;;;;;24.47;100.00;157636.41;4904220;29;20110;-74
2023/08/22 09:25:55;;;;;;;19.70;6.28;;;;;;;24.50;100.00;157642.94;4903856;29;20114;-74
2023/08/22 09:28:22;;;;;;;13.43;5.75;;;;;;;24.57;100.00;157661.25;4905850;29;20032;-74
2023/08/22 09:30:49;;;;;;;11.10;4.65;;;;;;;24.71;100.00;157697.97;4903616;29;20373;-74
2023/08/22 09:33:16;;;;;;;13.35;5.38;;;;;;;24.44;100.00;157627.25;4906994;29;20031;-73
2023/08/22 09:35:42;;;;;;;11.32;5.20;;;;;;;24.18;100.00;157559.22;4904527;29;20515;-74
2023/08/22 09:38:09;;;;;;;12.17;5.40;;;;;;;24.28;100.00;157586.66;4906759;29;20031;-73
2023/08/22 09:40:35;;;;;;;9.82;6.43;;;;;;;23.91;100.00;157489.88;4904260;29;20857;-74
2023/08/22 09:43:02;;;;;;;28.83;6.65;;;;;;;24.36;100.00;157606.28;4898993;29;20032;-73
2023/08/22 09:45:29;;;;;;;14.80;5.97;;;;;;;24.40;100.00;157616.78;4904271;29;20051;-73
2023/08/22 09:47:58;;;;;;;12.90;5.65;;;;;;;24.46;100.00;157632.47;4901471;29;20437;-74
2023/08/22 09:50:26;;;;;;;9.77;5.20;;;;;;;24.41;100.00;157619.38;4905438;29;20035;-74
2023/08/22 09:52:53;;;;;;;9.35;5.00;;;;;;;24.36;100.00;157606.28;4903179;29;20063;-72
2023/08/22 09:55:20;;;;;;;13.82;5.32;;;;;;;24.57;100.00;157662.59;4904126;29;20024;-72
2023/08/22 09:57:46;;;;;;;13.02;5.15;;;;;;;24.79;100.00;157720.19;4902875;29;20028;-73
2023/08/22 10:00:12;;;;;;;;;;;;;;;24.67;100.00;157687.47;4902339;29;20033;-72
2023/08/22 10:02:39;;;;;;;13.93;4.75;;;;;;;24.58;100.00;157663.91;4904403;29;19969;-73
2023/08/22 10:05:04;;;;;;;;;;;;;;;24.87;100.00;157739.84;4906059;29;20488;-75
2023/08/22 10:07:30;;;;;;;12.05;3.80;;;;;;;25.36;100.00;157869.47;4905102;29;19922;-74
2023/08/22 10:09:55;;;;;;;8.07;4.13;;;;;;;25.19;100.00;157823.59;4905228;29;20025;-74
2023/08/22 10:12:21;;;;;;;8.90;3.53;;;;;;;25.01;100.00;157777.78;4903128;29;20124;-73
2023/08/22 10:14:49;;;;;;;;;;;;;;;24.94;100.00;157759.47;4903926;29;20103;-74
2023/08/22 10:17:15;;;;;;;7.28;2.78;;;;;;;24.89;100.00;157745.06;4903027;29;19915;-73
2023/08/22 10:19:44;;;;;;;12.10;3.22;;;;;;;24.54;100.00;157653.44;4900008;29;20436;-73
2023/08/22 10:22:11;;;;;;;6.10;3.17;;;;;;;24.95;100.00;157760.75;4905044;29;20067;-73
2023/08/22 10:24:37;;;;;;;10.40;3.22;;;;;;;24.66;100.00;157684.88;4897734;29;20028;-74
2023/08/22 10:27:10;;;;;;;6.50;3.05;;;;;;;24.74;100.00;157705.78;4897186;29;20120;-74
2023/08/22 10:30:15;;;;;;;8.60;2.70;;;;;;;24.57;100.00;157661.25;4918588;29;20527;-73
2023/08/22 10:32:41;;;;;;;13.15;3.05;;;;;;;25.16;100.00;157817.06;4905804;29;20029;-73
2023/08/22 10:35:10;;;;;;;;;;;;;;;25.42;100.00;157883.84;4906251;29;20547;-74
2023/08/22 10:37:46;;;;;;;12.18;2.72;;;;;;;25.71;100.00;157959.84;4906137;29;19922;-74
2023/08/22 10:40:29;;;;;;;6.20;2.27;;;;;;;26.04;100.00;158046.31;4905531;29;20032;-74
2023/08/22 10:43:12;;;;;;;8.93;2.17;;;;;;;26.14;100.00;158072.50;4910177;29;20032;-74
2023/08/22 10:45:39;;;;;;;10.82;2.22;;;;;;;26.16;100.00;158079.06;4906205;29;20063;-74
2023/08/22 10:48:09;;;;;;;14.35;2.17;;;;;;;25.99;100.00;158033.22;4911779;29;20401;-74
2023/08/22 10:50:35;;;;;;;5.85;1.70;;;;;;;26.13;100.00;158071.19;4922461;29;20036;-74
2023/08/22 10:53:24;;;;;;;10.37;1.87;;;;;;;25.85;100.00;157997.78;4909486;29;20036;-74
2023/08/22 10:55:51;;;;;;;8.38;2.63;;;;;;;25.63;100.00;157938.84;4910540;29;20279;-74
2023/08/22 10:58:42;;;;;;;14.63;2.67;;;;;;;25.61;100.00;157933.63;4909228;29;20115;-74
2023/08/22 11:01:09;;;;;;;11.10;1.98;;;;;;;25.42;100.00;157883.84;4909908;29;20032;-74
2023/08/22 11:03:35;;;;;;;12.25;3.03;;;;;;;25.06;100.00;157790.88;4910399;29;20392;-73
2023/08/22 11:06:01;;;;;;;9.77;2.03;;;;;;;25.06;100.00;157790.88;4911535;29;20072;-73
2023/08/22 11:08:27;;;;;;;9.15;2.83;;;;;;;25.10;100.00;157801.34;4911056;29;20096;-73
2023/08/22 11:10:53;;;;;;;9.52;3.03;;;;;;;25.17;100.00;157819.66;4910173;29;20040;-74
2023/08/22 11:13:18;;;;;;;6.33;1.80;;;;;;;25.07;100.00;157792.19;4907437;29;20469;-74
2023/08/22 11:15:49;;;;;;;7.37;1.90;;;;;;;24.84;100.00;157731.97;4909477;29;20036;-74
2023/08/22 11:18:15;;;;;;;10.68;2.38;;;;;;;24.90;100.00;157749.00;4909484;29;20058;-74
2023/08/22 11:20:42;;;;;;;11.67;2.40;;;;;;;24.92;100.00;157752.91;4912793;29;20382;-74
2023/08/22 11:23:08;;;;;;;9.13;2.30;;;;;;;24.90;100.00;157747.66;4910614;29;20439;-73
2023/08/22 11:25:36;;;;;;;10.20;2.80;;;;;;;24.89;100.00;157745.06;4907478;29;20040;-73
2023/08/22 11:28:01;;;;;;;7.28;2.40;;;;;;;24.85;100.00;157735.91;4923568;29;20123;-73
2023/08/22 11:30:27;;;;;;;5.53;1.83;;;;;;;24.88;100.00;157743.78;4909621;29;20119;-76
2023/08/22 11:32:52;;;;;;;17.67;1.60;;;;;;;25.02;100.00;157780.38;4912701;29;20083;-75
2023/08/22 11:35:17;;;;;;;6.20;1.50;;;;;;;25.00;100.00;157775.16;4910784;29;20031;-77
2023/08/22 11:37:43;;;;;;;7.27;1.63;;;;;;;25.13;100.00;157807.91;4909798;29;20378;-76
2023/08/22 11:40:15;;;;;;;5.97;2.03;;;;;;;25.13;100.00;157807.91;4907436;29;20039;-77
2023/08/22 11:42:41;;;;;;;7.55;1.70;;;;;;;25.07;100.00;157792.19;4913787;29;20350;-76
2023/08/22 11:45:08;;;;;;;7.22;1.63;;;;;;;24.97;100.00;157766.00;4908675;29;20036;-77
2023/08/22 11:47:41;;;;;;;12.23;1.65;;;;;;;25.00;100.00;157773.84;4909419;29;20489;-76
2023/08/22 11:50:14;;;;;;;6.20;1.80;;;;;;;24.90;100.00;157749.00;4909696;29;20024;-76
2023/08/22 11:52:52;;;;;;;5.55;1.30;;;;;;;24.61;100.00;157671.78;4910388;29;20032;-75
2023/08/22 11:55:26;;;;;;;7.05;1.52;;;;;;;24.52;100.00;157648.16;4909555;29;20039;-77
2023/08/22 11:58:02;;;;;;;6.50;1.95;;;;;;;24.29;100.00;157589.31;4907304;29;20117;-76
2023/08/22 12:00:30;;;;;;;6.53;1.17;;;;;;;24.25;100.00;157577.50;4911407;29;20400;-77
2023/08/22 12:02:57;;;;;;;64.70;4.85;;;;;;;24.43;100.00;157624.66;4909839;29;20495;-77
2023/08/22 12:05:32;;;;;;;34.00;3.30;;;;;;;24.20;100.00;157565.75;4908951;29;20028;-77
2023/08/22 12:07:59;;;;;;;5.05;1.20;;;;;;;24.32;100.00;157597.16;4906968;29;20044;-77
2023/08/22 12:10:24;;;;;;;10.02;1.63;;;;;;;24.40;100.00;157618.09;4908919;29;20108;-76
2023/08/22 12:12:50;;;;;;;10.50;1.33;;;;;;;24.14;100.00;157550.06;4914037;29;20040;-76
2023/08/22 12:15:15;;;;;;;22.00;2.20;;;;;;;24.18;100.00;157559.22;4907902;29;20028;-77
2023/08/22 12:17:41;;;;;;;6.67;1.30;;;;;;;24.26;100.00;157580.13;4913341;29;20034;-76
2023/08/22 12:20:07;;;;;;;10.23;1.30;;;;;;;24.35;100.00;157605.00;4910819;29;20086;-77
2023/08/22 12:22:32;;;;;;;7.38;1.27;;;;;;;24.21;100.00;157567.03;4904562;29;20067;-77
2023/08/22 12:24:57;;;;;;;22.80;2.30;;;;;;;24.17;100.00;157556.63;4908707;29;20500;-77
2023/08/22 12:27:27;;;;;;;18.37;2.00;;;;;;;23.99;100.00;157510.81;4910752;29;20079;-77
2023/08/22 12:29:53;;;;;;;11.25;2.17;;;;;;;23.91;100.00;157488.59;4909258;29;20389;-77
2023/08/22 12:32:18;;;;;;;10.38;1.83;;;;;;;23.78;100.00;157455.84;4909206;29;20031;-77
2023/08/22 12:34:43;;;;;;;19.77;3.00;;;;;;;23.75;100.00;157446.69;4910467;29;20036;-76
2023/08/22 12:37:09;;;;;;;9.53;2.40;;;;;;;23.65;100.00;157421.84;4911880;29;20020;-74
2023/08/22 12:39:34;;;;;;;13.77;2.40;;;;;;;23.64;100.00;157417.94;4906554;29;20036;-73
2023/08/22 12:42:00;;;;;;;14.70;2.23;;;;;;;23.62;100.00;157414.00;4907627;29;20397;-74
2023/08/22 12:44:25;;;;;;;8.23;2.00;;;;;;;23.78;100.00;157454.50;4911898;29;20103;-74
2023/08/22 12:46:51;;;;;;;8.57;2.10;;;;;;;23.85;100.00;157472.84;4904928;29;20518;-74
2023/08/22 12:49:16;;;;;;;5.13;1.60;;;;;;;23.96;100.00;157501.66;4903412;29;20039;-74
2023/08/22 12:51:42;;;;;;;5.50;1.93;;;;;;;23.72;100.00;157438.81;4909421;29;20039;-74
2023/08/22 12:54:07;;;;;;;6.43;2.27;;;;;;;23.83;100.00;157468.91;4910254;29;20489;-74
2023/08/22 12:56:33;;;;;;;9.33;2.33;;;;;;;24.01;100.00;157514.75;4908020;29;20064;-74
2023/08/22 12:58:58;;;;;;;7.60;2.43;;;;;;;24.21;100.00;157568.38;4907227;29;20477;-74
2023/08/22 13:01:23;;;;;;;16.33;2.67;;;;;;;24.27;100.00;157582.78;4911154;29;20028;-74
2023/08/22 13:03:52;;;;;;;17.53;2.67;;;;;;;24.41;100.00;157619.38;4904299;29;20060;-73
2023/08/22 13:06:18;;;;;;;13.68;3.47;;;;;;;24.25;100.00;157578.84;4902370;29;20040;-73
2023/08/22 13:08:43;;;;;;;10.27;2.20;;;;;;;24.43;100.00;157624.66;4908759;29;20429;-74
2023/08/22 13:11:09;;;;;;;8.07;2.50;;;;;;;24.26;100.00;157580.13;4900292;29;20028;-74
2023/08/22 13:13:34;;;;;;;11.23;3.03;;;;;;;24.37;100.00;157610.22;4904770;29;20047;-74
2023/08/22 13:15:59;;;;;;;8.23;2.80;;;;;;;24.42;100.00;157623.31;4905205;29;20511;-74
2023/08/22 13:18:25;;;;;;;21.80;3.27;;;;;;;24.72;100.00;157701.91;4908641;29;20082;-73
2023/08/22 13:20:50;;;;;;;17.50;2.20;;;;;;;24.73;100.00;157703.16;4904230;29;20132;-73
2023/08/22 13:23:16;;;;;;;9.37;2.37;;;;;;;24.93;100.00;157755.53;4906228;29;20274;-74
2023/08/22 13:25:41;;;;;;;7.57;2.07;;;;;;;25.39;100.00;157876.03;4908291;29;20032;-74
2023/08/22 13:28:07;;;;;;;7.13;2.60;;;;;;;25.51;100.00;157908.72;4907942;29;20047;-73
2023/08/22 13:30:33;;;;;;;9.55;2.83;;;;;;;25.58;100.00;157925.75;4905911;29;20769;-74
2023/08/22 13:32:58;;;;;;;9.85;2.42;;;;;;;25.24;100.00;157836.69;4905984;29;20100;-72
2023/08/22 13:35:24;;;;;;;7.10;2.90;;;;;;;25.56;100.00;157920.53;4908669;29;20087;-72
2023/08/22 13:37:50;;;;;;;13.55;2.50;;;;;;;25.36;100.00;157868.16;4905579;29;20030;-71
2023/08/22 13:40:16;;;;;;;9.48;2.30;;;;;;;25.89;100.00;158006.94;4908509;29;20036;-71
2023/08/22 13:42:41;;;;;;;14.83;3.00;;;;;;;25.69;100.00;157954.56;4911990;29;20408;-71
2023/08/22 13:45:07;;;;;;;10.60;2.37;;;;;;;25.69;100.00;157955.88;4909405;29;20064;-71